sensor_id;sensor_type;location;lat;lon;timestamp;temperature;humidity
29939;DHT22;16799;50.844;5.304;2023-03-01T00:01:11;-0.60;99.90
29939;DHT22;16799;50.844;5.304;2023-03-01T00:03:37;-0.60;99.90
29939;DHT22;16799;50.844;5.304;2023-03-01T00:06:04;-0.80;99.90
29939;DHT22;16799;50.844;5.304;2023-03-01T00:08:30;-0.90;99.90
29939;DHT22;16799;50.844;5.304;2023-03-01T00:11:09;-0.90;99.90
29939;DHT22;16799;50.844;5.304;2023-03-01T00:13:35;-0.80;99.90
29939;DHT22;16799;50.844;5.304;2023-03-01T00:16:03;-0.80;99.90
29939;DHT22;16799;50.844;5.304;2023-03-01T00:18:29;-0.60;99.90
29939;DHT22;16799;50.844;5.304;2023-03-01T00:20:55;-0.80;99.90
29939;DHT22;16799;50.844;5.304;2023-03-01T00:23:22;-1.00;99.90
29939;DHT22;16799;50.844;5.304;2023-03-01T00:25:47;-1.00;99.90
29939;DHT22;16799;50.844;5.304;2023-03-01T00:28:13;-0.80;99.90
29939;DHT22;16799;50.844;5.304;2023-03-01T00:30:39;-0.70;99.90
29939;DHT22;16799;50.844;5.304;2023-03-01T00:33:05;-0.70;99.90
29939;DHT22;16799;50.844;5.304;2023-03-01T00:35:34;-0.80;99.90
29939;DHT22;16799;50.844;5.304;2023-03-01T00:38:00;-0.70;99.90
29939;DHT22;16799;50.844;5.304;2023-03-01T00:40:32;-0.80;99.90
29939;DHT22;16799;50.844;5.304;2023-03-01T00:42:58;-0.80;99.90
29939;DHT22;16799;50.844;5.304;2023-03-01T00:45:24;-0.90;99.90
29939;DHT22;16799;50.844;5.304;2023-03-01T00:47:50;-0.90;99.90
29939;DHT22;16799;50.844;5.304;2023-03-01T00:50:17;-1.00;99.90
29939;DHT22;16799;50.844;5.304;2023-03-01T00:52:43;-1.00;99.90
29939;DHT22;16799;50.844;5.304;2023-03-01T00:55:09;-1.00;99.90
29939;DHT22;16799;50.844;5.304;2023-03-01T00:57:35;-1.10;99.90
29939;DHT22;16799;50.844;5.304;2023-03-01T01:00:01;-1.10;99.90
29939;DHT22;16799;50.844;5.304;2023-03-01T01:02:26;-1.10;99.90
29939;DHT22;16799;50.844;5.304;2023-03-01T01:04:52;-1.10;99.90
29939;DHT22;16799;50.844;5.304;2023-03-01T01:07:18;-1.20;99.90
29939;DHT22;16799;50.844;5.304;2023-03-01T01:09:45;-1.20;99.90
29939;DHT22;16799;50.844;5.304;2023-03-01T01:12:11;-1.30;99.90
29939;DHT22;16799;50.844;5.304;2023-03-01T01:14:37;-1.20;99.90
29939;DHT22;16799;50.844;5.304;2023-03-01T01:17:03;-1.20;99.90
29939;DHT22;16799;50.844;5.304;2023-03-01T01:19:29;-1.20;99.90
29939;DHT22;16799;50.844;5.304;2023-03-01T01:21:54;-1.20;99.90
29939;DHT22;16799;50.844;5.304;2023-03-01T01:24:20;-1.20;99.90
29939;DHT22;16799;50.844;5.304;2023-03-01T01:26:46;-1.30;99.90
29939;DHT22;16799;50.844;5.304;2023-03-01T01:29:12;-1.30;99.90
29939;DHT22;16799;50.844;5.304;2023-03-01T01:31:40;-1.30;99.90
29939;DHT22;16799;50.844;5.304;2023-03-01T01:34:07;-1.30;99.90
29939;DHT22;16799;50.844;5.304;2023-03-01T01:36:34;-1.30;99.90
29939;DHT22;16799;50.844;5.304;2023-03-01T01:39:00;-1.30;99.90
29939;DHT22;16799;50.844;5.304;2023-03-01T01:41:27;-1.30;99.90
29939;DHT22;16799;50.844;5.304;2023-03-01T01:44:25;-1.30;99.90
29939;DHT22;16799;50.844;5.304;2023-03-01T01:47:01;-1.40;99.90
29939;DHT22;16799;50.844;5.304;2023-03-01T01:49:37;-1.50;99.90
29939;DHT22;16799;50.844;5.304;2023-03-01T01:52:15;-1.50;99.90
29939;DHT22;16799;50.844;5.304;2023-03-01T01:54:56;-1.50;99.90
29939;DHT22;16799;50.844;5.304;2023-03-01T01:57:31;-1.50;99.90
29939;DHT22;16799;50.844;5.304;2023-03-01T02:00:03;-1.50;99.90
29939;DHT22;16799;50.844;5.304;2023-03-01T02:02:29;-1.50;99.90
29939;DHT22;16799;50.844;5.304;2023-03-01T02:05:03;-1.60;99.90
29939;DHT22;16799;50.844;5.304;2023-03-01T02:07:38;-1.70;99.90
29939;DHT22;16799;50.844;5.304;2023-03-01T02:10:05;-1.80;99.90
29939;DHT22;16799;50.844;5.304;2023-03-01T02:12:31;-1.90;99.90
29939;DHT22;16799;50.844;5.304;2023-03-01T02:14:57;-1.90;99.90
29939;DHT22;16799;50.844;5.304;2023-03-01T02:17:23;-1.80;99.90
29939;DHT22;16799;50.844;5.304;2023-03-01T02:22:36;-1.70;99.90
29939;DHT22;16799;50.844;5.304;2023-03-01T02:30:39;-1.80;99.90
29939;DHT22;16799;50.844;5.304;2023-03-01T02:33:26;-1.80;99.90
29939;DHT22;16799;50.844;5.304;2023-03-01T02:35:53;-1.90;99.90
29939;DHT22;16799;50.844;5.304;2023-03-01T02:38:20;-1.90;99.90
29939;DHT22;16799;50.844;5.304;2023-03-01T02:40:47;-1.90;99.90
29939;DHT22;16799;50.844;5.304;2023-03-01T02:43:16;-1.90;99.90
29939;DHT22;16799;50.844;5.304;2023-03-01T02:45:52;-1.90;99.90
29939;DHT22;16799;50.844;5.304;2023-03-01T02:48:19;-1.80;99.90
29939;DHT22;16799;50.844;5.304;2023-03-01T02:56:21;-2.20;99.90
29939;DHT22;16799;50.844;5.304;2023-03-01T02:58:47;-2.30;99.90
29939;DHT22;16799;50.844;5.304;2023-03-01T03:01:17;-2.20;99.90
29939;DHT22;16799;50.844;5.304;2023-03-01T03:03:43;-2.30;99.90
29939;DHT22;16799;50.844;5.304;2023-03-01T03:06:09;-2.30;99.90
29939;DHT22;16799;50.844;5.304;2023-03-01T03:08:35;-2.50;99.90
29939;DHT22;16799;50.844;5.304;2023-03-01T03:11:00;-2.50;99.90
29939;DHT22;16799;50.844;5.304;2023-03-01T03:13:26;-2.40;99.90
29939;DHT22;16799;50.844;5.304;2023-03-01T03:15:54;-2.40;99.90
29939;DHT22;16799;50.844;5.304;2023-03-01T03:18:21;-2.30;99.90
29939;DHT22;16799;50.844;5.304;2023-03-01T03:20:48;-2.30;99.90
29939;DHT22;16799;50.844;5.304;2023-03-01T03:23:18;-2.30;99.90
29939;DHT22;16799;50.844;5.304;2023-03-01T03:25:47;-2.30;99.90
29939;DHT22;16799;50.844;5.304;2023-03-01T03:28:12;-2.40;99.90
29939;DHT22;16799;50.844;5.304;2023-03-01T03:30:39;-2.40;99.90
29939;DHT22;16799;50.844;5.304;2023-03-01T03:33:06;-2.40;99.90
29939;DHT22;16799;50.844;5.304;2023-03-01T03:35:37;-2.40;99.90
29939;DHT22;16799;50.844;5.304;2023-03-01T03:38:06;-2.50;99.90
29939;DHT22;16799;50.844;5.304;2023-03-01T03:40:37;-2.50;99.90
29939;DHT22;16799;50.844;5.304;2023-03-01T03:43:05;-2.50;99.90
29939;DHT22;16799;50.844;5.304;2023-03-01T03:45:32;-2.50;99.90
29939;DHT22;16799;50.844;5.304;2023-03-01T03:47:59;-2.40;99.90
29939;DHT22;16799;50.844;5.304;2023-03-01T03:50:25;-2.50;99.90
29939;DHT22;16799;50.844;5.304;2023-03-01T03:52:51;-2.50;99.90
29939;DHT22;16799;50.844;5.304;2023-03-01T03:55:18;-2.50;99.90
29939;DHT22;16799;50.844;5.304;2023-03-01T03:57:45;-2.60;99.90
29939;DHT22;16799;50.844;5.304;2023-03-01T04:00:18;-2.60;99.90
29939;DHT22;16799;50.844;5.304;2023-03-01T04:02:46;-2.60;99.90
29939;DHT22;16799;50.844;5.304;2023-03-01T04:05:13;-2.60;99.90
29939;DHT22;16799;50.844;5.304;2023-03-01T04:07:40;-2.70;99.90
29939;DHT22;16799;50.844;5.304;2023-03-01T04:10:12;-2.70;99.90
29939;DHT22;16799;50.844;5.304;2023-03-01T04:12:39;-2.70;99.90
29939;DHT22;16799;50.844;5.304;2023-03-01T04:15:06;-2.80;99.90
29939;DHT22;16799;50.844;5.304;2023-03-01T04:17:43;-2.70;99.90
29939;DHT22;16799;50.844;5.304;2023-03-01T04:20:14;-2.70;99.90
29939;DHT22;16799;50.844;5.304;2023-03-01T04:22:43;-2.80;99.90
29939;DHT22;16799;50.844;5.304;2023-03-01T04:25:11;-2.70;99.90
29939;DHT22;16799;50.844;5.304;2023-03-01T04:27:39;-2.80;99.90
29939;DHT22;16799;50.844;5.304;2023-03-01T04:30:06;-2.70;99.90
29939;DHT22;16799;50.844;5.304;2023-03-01T04:32:33;-2.80;99.90
29939;DHT22;16799;50.844;5.304;2023-03-01T04:34:59;-2.80;99.90
29939;DHT22;16799;50.844;5.304;2023-03-01T04:37:25;-2.70;99.90
29939;DHT22;16799;50.844;5.304;2023-03-01T04:39:51;-2.70;99.90
29939;DHT22;16799;50.844;5.304;2023-03-01T04:42:17;-2.70;99.90
29939;DHT22;16799;50.844;5.304;2023-03-01T04:44:44;-2.70;99.90
29939;DHT22;16799;50.844;5.304;2023-03-01T04:47:10;-2.80;99.90
29939;DHT22;16799;50.844;5.304;2023-03-01T04:49:36;-2.90;99.90
29939;DHT22;16799;50.844;5.304;2023-03-01T04:52:02;-3.00;99.90
29939;DHT22;16799;50.844;5.304;2023-03-01T04:54:29;-3.00;99.90
29939;DHT22;16799;50.844;5.304;2023-03-01T04:56:55;-3.10;99.90
29939;DHT22;16799;50.844;5.304;2023-03-01T04:59:20;-3.00;99.90
29939;DHT22;16799;50.844;5.304;2023-03-01T05:01:52;-3.10;99.90
29939;DHT22;16799;50.844;5.304;2023-03-01T05:04:23;-3.10;99.90
29939;DHT22;16799;50.844;5.304;2023-03-01T05:06:49;-3.00;99.90
29939;DHT22;16799;50.844;5.304;2023-03-01T05:09:15;-3.00;99.90
29939;DHT22;16799;50.844;5.304;2023-03-01T05:11:41;-3.10;99.90
29939;DHT22;16799;50.844;5.304;2023-03-01T05:14:08;-3.20;99.90
29939;DHT22;16799;50.844;5.304;2023-03-01T05:16:35;-3.10;99.90
29939;DHT22;16799;50.844;5.304;2023-03-01T05:19:02;-3.20;99.90
29939;DHT22;16799;50.844;5.304;2023-03-01T05:21:37;-3.20;99.90
29939;DHT22;16799;50.844;5.304;2023-03-01T05:24:23;-3.20;99.90
29939;DHT22;16799;50.844;5.304;2023-03-01T05:26:49;-3.20;99.90
29939;DHT22;16799;50.844;5.304;2023-03-01T05:29:18;-3.10;99.90
29939;DHT22;16799;50.844;5.304;2023-03-01T05:31:44;-3.20;99.90
29939;DHT22;16799;50.844;5.304;2023-03-01T05:34:10;-3.20;99.90
29939;DHT22;16799;50.844;5.304;2023-03-01T05:36:38;-3.30;99.90
29939;DHT22;16799;50.844;5.304;2023-03-01T05:39:03;-3.30;99.90
29939;DHT22;16799;50.844;5.304;2023-03-01T05:41:29;-3.40;99.90
29939;DHT22;16799;50.844;5.304;2023-03-01T05:43:55;-3.40;99.90
29939;DHT22;16799;50.844;5.304;2023-03-01T05:46:21;-3.50;99.90
29939;DHT22;16799;50.844;5.304;2023-03-01T05:48:49;-3.40;99.90
29939;DHT22;16799;50.844;5.304;2023-03-01T05:51:15;-3.40;99.90
29939;DHT22;16799;50.844;5.304;2023-03-01T05:53:41;-3.40;99.90
29939;DHT22;16799;50.844;5.304;2023-03-01T05:56:07;-3.40;99.90
29939;DHT22;16799;50.844;5.304;2023-03-01T05:58:33;-3.40;99.90
29939;DHT22;16799;50.844;5.304;2023-03-01T06:00:58;-3.40;99.90
29939;DHT22;16799;50.844;5.304;2023-03-01T06:03:25;-3.30;99.90
29939;DHT22;16799;50.844;5.304;2023-03-01T06:05:56;-3.20;99.90
29939;DHT22;16799;50.844;5.304;2023-03-01T06:08:22;-3.30;99.90
29939;DHT22;16799;50.844;5.304;2023-03-01T06:10:47;-3.40;99.90
29939;DHT22;16799;50.844;5.304;2023-03-01T06:13:13;-3.40;99.90
29939;DHT22;16799;50.844;5.304;2023-03-01T06:15:39;-3.40;99.90
29939;DHT22;16799;50.844;5.304;2023-03-01T06:18:04;-3.40;99.90
29939;DHT22;16799;50.844;5.304;2023-03-01T06:20:30;-3.50;99.90
29939;DHT22;16799;50.844;5.304;2023-03-01T06:22:56;-3.50;99.90
29939;DHT22;16799;50.844;5.304;2023-03-01T06:25:23;-3.40;99.90
29939;DHT22;16799;50.844;5.304;2023-03-01T06:27:49;-3.40;99.90
29939;DHT22;16799;50.844;5.304;2023-03-01T06:30:19;-3.40;99.90
29939;DHT22;16799;50.844;5.304;2023-03-01T06:32:45;-3.30;99.90
29939;DHT22;16799;50.844;5.304;2023-03-01T06:35:13;-3.40;99.90
29939;DHT22;16799;50.844;5.304;2023-03-01T06:37:39;-3.40;99.90
29939;DHT22;16799;50.844;5.304;2023-03-01T06:40:06;-3.40;99.90
29939;DHT22;16799;50.844;5.304;2023-03-01T06:42:37;-3.40;99.90
29939;DHT22;16799;50.844;5.304;2023-03-01T06:45:04;-3.50;99.90
29939;DHT22;16799;50.844;5.304;2023-03-01T06:47:31;-3.50;99.90
29939;DHT22;16799;50.844;5.304;2023-03-01T06:49:59;-3.50;99.90
29939;DHT22;16799;50.844;5.304;2023-03-01T06:52:25;-3.50;99.90
29939;DHT22;16799;50.844;5.304;2023-03-01T06:54:50;-3.50;99.90
29939;DHT22;16799;50.844;5.304;2023-03-01T06:57:16;-3.50;99.90
29939;DHT22;16799;50.844;5.304;2023-03-01T06:59:42;-3.40;99.90
29939;DHT22;16799;50.844;5.304;2023-03-01T07:02:12;-3.30;99.90
29939;DHT22;16799;50.844;5.304;2023-03-01T07:04:38;-3.00;99.90
29939;DHT22;16799;50.844;5.304;2023-03-01T07:07:04;-3.10;99.90
29939;DHT22;16799;50.844;5.304;2023-03-01T07:09:30;-3.10;99.90
29939;DHT22;16799;50.844;5.304;2023-03-01T07:11:56;-3.20;99.90
29939;DHT22;16799;50.844;5.304;2023-03-01T07:14:22;-3.20;99.90
29939;DHT22;16799;50.844;5.304;2023-03-01T07:16:51;-3.20;99.90
29939;DHT22;16799;50.844;5.304;2023-03-01T07:19:17;-3.20;99.90
29939;DHT22;16799;50.844;5.304;2023-03-01T07:21:42;-3.10;99.90
29939;DHT22;16799;50.844;5.304;2023-03-01T07:24:08;-3.00;99.90
29939;DHT22;16799;50.844;5.304;2023-03-01T07:26:34;-2.90;99.90
29939;DHT22;16799;50.844;5.304;2023-03-01T07:29:04;-2.90;99.90
29939;DHT22;16799;50.844;5.304;2023-03-01T07:31:30;-2.80;99.90
29939;DHT22;16799;50.844;5.304;2023-03-01T07:33:56;-2.60;99.90
29939;DHT22;16799;50.844;5.304;2023-03-01T07:36:22;-2.50;99.90
29939;DHT22;16799;50.844;5.304;2023-03-01T07:38:48;-2.40;99.90
29939;DHT22;16799;50.844;5.304;2023-03-01T07:41:13;-2.20;99.90
29939;DHT22;16799;50.844;5.304;2023-03-01T07:43:39;-2.10;99.90
29939;DHT22;16799;50.844;5.304;2023-03-01T07:46:05;-2.00;99.90
29939;DHT22;16799;50.844;5.304;2023-03-01T07:48:32;-1.90;99.90
29939;DHT22;16799;50.844;5.304;2023-03-01T07:51:03;-1.70;99.90
29939;DHT22;16799;50.844;5.304;2023-03-01T07:53:30;-1.50;99.90
29939;DHT22;16799;50.844;5.304;2023-03-01T07:56:04;-1.30;99.90
29939;DHT22;16799;50.844;5.304;2023-03-01T07:58:31;-1.10;99.90
29939;DHT22;16799;50.844;5.304;2023-03-01T08:01:00;-1.00;99.90
29939;DHT22;16799;50.844;5.304;2023-03-01T08:03:26;-0.90;99.90
29939;DHT22;16799;50.844;5.304;2023-03-01T08:05:51;-0.60;99.90
29939;DHT22;16799;50.844;5.304;2023-03-01T08:08:17;-0.50;99.90
29939;DHT22;16799;50.844;5.304;2023-03-01T08:10:43;-0.40;99.90
29939;DHT22;16799;50.844;5.304;2023-03-01T08:13:08;-0.20;99.90
29939;DHT22;16799;50.844;5.304;2023-03-01T08:15:34;0.00;99.90
29939;DHT22;16799;50.844;5.304;2023-03-01T08:17:59;0.00;99.90
29939;DHT22;16799;50.844;5.304;2023-03-01T08:20:26;0.10;99.90
29939;DHT22;16799;50.844;5.304;2023-03-01T08:22:51;0.30;99.90
29939;DHT22;16799;50.844;5.304;2023-03-01T08:25:17;0.50;99.90
29939;DHT22;16799;50.844;5.304;2023-03-01T08:27:43;0.60;99.90
29939;DHT22;16799;50.844;5.304;2023-03-01T08:30:09;0.80;99.90
29939;DHT22;16799;50.844;5.304;2023-03-01T08:32:36;1.00;99.90
29939;DHT22;16799;50.844;5.304;2023-03-01T08:35:02;1.10;99.90
29939;DHT22;16799;50.844;5.304;2023-03-01T08:37:28;1.20;99.90
29939;DHT22;16799;50.844;5.304;2023-03-01T08:39:56;1.30;99.90
29939;DHT22;16799;50.844;5.304;2023-03-01T08:42:22;1.30;99.90
29939;DHT22;16799;50.844;5.304;2023-03-01T08:44:47;1.50;99.90
29939;DHT22;16799;50.844;5.304;2023-03-01T08:47:13;1.60;99.90
29939;DHT22;16799;50.844;5.304;2023-03-01T08:49:39;1.60;99.90
29939;DHT22;16799;50.844;5.304;2023-03-01T08:52:05;1.70;99.90
29939;DHT22;16799;50.844;5.304;2023-03-01T08:54:30;1.70;99.90
29939;DHT22;16799;50.844;5.304;2023-03-01T08:56:56;1.80;99.90
29939;DHT22;16799;50.844;5.304;2023-03-01T08:59:25;2.00;99.90
29939;DHT22;16799;50.844;5.304;2023-03-01T09:01:51;2.10;99.90
29939;DHT22;16799;50.844;5.304;2023-03-01T09:04:17;2.10;99.90
29939;DHT22;16799;50.844;5.304;2023-03-01T09:06:43;2.30;99.90
29939;DHT22;16799;50.844;5.304;2023-03-01T09:09:14;2.40;99.90
29939;DHT22;16799;50.844;5.304;2023-03-01T09:11:41;2.70;99.90
29939;DHT22;16799;50.844;5.304;2023-03-01T09:14:07;2.80;99.90
29939;DHT22;16799;50.844;5.304;2023-03-01T09:16:32;2.80;99.90
29939;DHT22;16799;50.844;5.304;2023-03-01T09:19:02;3.00;99.90
29939;DHT22;16799;50.844;5.304;2023-03-01T09:21:27;3.20;99.90
29939;DHT22;16799;50.844;5.304;2023-03-01T09:23:53;3.40;99.90
29939;DHT22;16799;50.844;5.304;2023-03-01T09:26:22;3.50;99.90
29939;DHT22;16799;50.844;5.304;2023-03-01T09:28:49;3.60;99.90
29939;DHT22;16799;50.844;5.304;2023-03-01T09:31:17;3.80;99.80
29939;DHT22;16799;50.844;5.304;2023-03-01T09:33:46;3.80;98.80
29939;DHT22;16799;50.844;5.304;2023-03-01T09:36:18;3.80;98.10
29939;DHT22;16799;50.844;5.304;2023-03-01T09:38:44;3.80;96.50
29939;DHT22;16799;50.844;5.304;2023-03-01T09:46:57;4.20;97.80
29939;DHT22;16799;50.844;5.304;2023-03-01T09:49:32;4.30;97.20
29939;DHT22;16799;50.844;5.304;2023-03-01T09:52:21;4.40;96.20
29939;DHT22;16799;50.844;5.304;2023-03-01T09:54:54;4.60;95.30
29939;DHT22;16799;50.844;5.304;2023-03-01T10:00:12;4.50;95.30
29939;DHT22;16799;50.844;5.304;2023-03-01T10:02:49;4.60;95.60
29939;DHT22;16799;50.844;5.304;2023-03-01T10:10:38;5.30;95.40
29939;DHT22;16799;50.844;5.304;2023-03-01T10:13:17;5.40;91.70
29939;DHT22;16799;50.844;5.304;2023-03-01T10:18:35;5.70;91.40
29939;DHT22;16799;50.844;5.304;2023-03-01T10:21:19;6.00;89.40
29939;DHT22;16799;50.844;5.304;2023-03-01T10:23:45;6.40;88.00
29939;DHT22;16799;50.844;5.304;2023-03-01T10:26:32;6.60;83.40
29939;DHT22;16799;50.844;5.304;2023-03-01T10:29:09;6.90;85.20
29939;DHT22;16799;50.844;5.304;2023-03-01T10:31:47;7.50;82.80
29939;DHT22;16799;50.844;5.304;2023-03-01T10:34:19;8.20;78.40
29939;DHT22;16799;50.844;5.304;2023-03-01T10:36:48;8.70;74.00
29939;DHT22;16799;50.844;5.304;2023-03-01T10:39:18;8.80;72.40
29939;DHT22;16799;50.844;5.304;2023-03-01T10:44:54;9.50;71.80
29939;DHT22;16799;50.844;5.304;2023-03-01T10:47:23;9.80;65.50
29939;DHT22;16799;50.844;5.304;2023-03-01T10:49:59;9.50;66.10
29939;DHT22;16799;50.844;5.304;2023-03-01T10:52:34;10.00;65.00
29939;DHT22;16799;50.844;5.304;2023-03-01T10:55:24;9.80;67.60
29939;DHT22;16799;50.844;5.304;2023-03-01T10:58:19;10.20;65.90
29939;DHT22;16799;50.844;5.304;2023-03-01T11:00:59;10.20;64.10
29939;DHT22;16799;50.844;5.304;2023-03-01T11:03:37;10.70;63.00
29939;DHT22;16799;50.844;5.304;2023-03-01T11:08:46;10.20;61.90
29939;DHT22;16799;50.844;5.304;2023-03-01T11:11:21;10.50;61.90
29939;DHT22;16799;50.844;5.304;2023-03-01T11:14:00;10.20;59.50
29939;DHT22;16799;50.844;5.304;2023-03-01T11:16:34;10.90;62.50
29939;DHT22;16799;50.844;5.304;2023-03-01T11:22:02;11.90;58.70
29939;DHT22;16799;50.844;5.304;2023-03-01T11:24:46;11.90;56.40
29939;DHT22;16799;50.844;5.304;2023-03-01T11:29:41;13.10;55.00
29939;DHT22;16799;50.844;5.304;2023-03-01T11:32:11;13.70;53.30
29939;DHT22;16799;50.844;5.304;2023-03-01T11:34:55;13.40;52.70
29939;DHT22;16799;50.844;5.304;2023-03-01T11:40:24;15.00;49.80
29939;DHT22;16799;50.844;5.304;2023-03-01T11:45:23;14.10;51.30
29939;DHT22;16799;50.844;5.304;2023-03-01T11:50:47;13.70;48.30
29939;DHT22;16799;50.844;5.304;2023-03-01T11:58:54;12.80;50.30
29939;DHT22;16799;50.844;5.304;2023-03-01T12:01:46;13.20;51.40
29939;DHT22;16799;50.844;5.304;2023-03-01T12:23:41;16.80;41.30
29939;DHT22;16799;50.844;5.304;2023-03-01T12:37:41;16.20;42.40
29939;DHT22;16799;50.844;5.304;2023-03-01T12:43:47;14.70;42.70
29939;DHT22;16799;50.844;5.304;2023-03-01T12:49:34;15.90;41.60
29939;DHT22;16799;50.844;5.304;2023-03-01T12:52:03;15.50;41.90
29939;DHT22;16799;50.844;5.304;2023-03-01T12:54:31;16.20;43.20
29939;DHT22;16799;50.844;5.304;2023-03-01T12:57:08;16.40;41.00
29939;DHT22;16799;50.844;5.304;2023-03-01T13:00:22;16.50;41.30
29939;DHT22;16799;50.844;5.304;2023-03-01T13:02:37;16.60;40.60
29939;DHT22;16799;50.844;5.304;2023-03-01T13:10:49;17.40;40.00
29939;DHT22;16799;50.844;5.304;2023-03-01T13:13:23;17.60;40.00
29939;DHT22;16799;50.844;5.304;2023-03-01T13:15:50;18.50;39.40
29939;DHT22;16799;50.844;5.304;2023-03-01T13:20:50;18.30;36.30
29939;DHT22;16799;50.844;5.304;2023-03-01T13:26:02;16.60;37.50
29939;DHT22;16799;50.844;5.304;2023-03-01T13:33:51;17.90;37.60
29939;DHT22;16799;50.844;5.304;2023-03-01T13:52:40;17.00;36.70
29939;DHT22;16799;50.844;5.304;2023-03-01T13:57:39;18.70;36.70
29939;DHT22;16799;50.844;5.304;2023-03-01T14:00:07;19.10;36.70
29939;DHT22;16799;50.844;5.304;2023-03-01T14:03:03;19.20;35.10
29939;DHT22;16799;50.844;5.304;2023-03-01T14:05:30;18.70;35.10
29939;DHT22;16799;50.844;5.304;2023-03-01T14:07:56;17.60;35.40
29939;DHT22;16799;50.844;5.304;2023-03-01T14:10:27;17.00;36.50
29939;DHT22;16799;50.844;5.304;2023-03-01T14:13:37;16.50;36.50
29939;DHT22;16799;50.844;5.304;2023-03-01T14:16:14;15.10;38.20
29939;DHT22;16799;50.844;5.304;2023-03-01T14:19:21;13.20;38.90
29939;DHT22;16799;50.844;5.304;2023-03-01T14:22:20;11.60;42.80
29939;DHT22;16799;50.844;5.304;2023-03-01T14:24:55;10.80;45.10
29939;DHT22;16799;50.844;5.304;2023-03-01T14:27:22;10.30;46.70
29939;DHT22;16799;50.844;5.304;2023-03-01T14:30:00;9.90;48.30
29939;DHT22;16799;50.844;5.304;2023-03-01T14:32:29;9.60;49.90
29939;DHT22;16799;50.844;5.304;2023-03-01T14:34:55;9.60;51.10
29939;DHT22;16799;50.844;5.304;2023-03-01T14:37:27;9.50;51.30
29939;DHT22;16799;50.844;5.304;2023-03-01T14:39:55;9.30;53.10
29939;DHT22;16799;50.844;5.304;2023-03-01T14:42:22;9.10;52.80
29939;DHT22;16799;50.844;5.304;2023-03-01T14:44:50;9.00;52.30
29939;DHT22;16799;50.844;5.304;2023-03-01T14:49:50;8.90;53.40
29939;DHT22;16799;50.844;5.304;2023-03-01T14:52:25;8.90;53.80
29939;DHT22;16799;50.844;5.304;2023-03-01T14:54:53;8.80;54.30
29939;DHT22;16799;50.844;5.304;2023-03-01T14:57:23;8.60;53.10
29939;DHT22;16799;50.844;5.304;2023-03-01T14:59:50;8.40;53.30
29939;DHT22;16799;50.844;5.304;2023-03-01T15:02:20;8.20;53.00
29939;DHT22;16799;50.844;5.304;2023-03-01T15:04:49;8.20;53.80
29939;DHT22;16799;50.844;5.304;2023-03-01T15:07:15;8.30;55.00
29939;DHT22;16799;50.844;5.304;2023-03-01T15:09:42;8.40;55.20
29939;DHT22;16799;50.844;5.304;2023-03-01T15:14:52;8.10;53.40
29939;DHT22;16799;50.844;5.304;2023-03-01T15:17:36;8.00;56.10
29939;DHT22;16799;50.844;5.304;2023-03-01T15:20:18;8.00;55.30
29939;DHT22;16799;50.844;5.304;2023-03-01T15:22:47;8.00;56.30
29939;DHT22;16799;50.844;5.304;2023-03-01T15:25:17;7.80;54.70
29939;DHT22;16799;50.844;5.304;2023-03-01T15:27:48;7.80;55.10
29939;DHT22;16799;50.844;5.304;2023-03-01T15:30:25;7.70;55.60
29939;DHT22;16799;50.844;5.304;2023-03-01T15:36:02;7.60;55.20
29939;DHT22;16799;50.844;5.304;2023-03-01T15:38:34;7.50;55.70
29939;DHT22;16799;50.844;5.304;2023-03-01T15:41:21;7.60;56.20
29939;DHT22;16799;50.844;5.304;2023-03-01T15:43:48;7.60;56.40
29939;DHT22;16799;50.844;5.304;2023-03-01T15:46:33;7.60;56.40
29939;DHT22;16799;50.844;5.304;2023-03-01T15:49:05;7.60;56.10
29939;DHT22;16799;50.844;5.304;2023-03-01T15:51:45;7.50;55.40
29939;DHT22;16799;50.844;5.304;2023-03-01T15:54:18;7.50;56.00
29939;DHT22;16799;50.844;5.304;2023-03-01T15:56:45;7.50;58.60
29939;DHT22;16799;50.844;5.304;2023-03-01T15:59:12;7.60;57.20
29939;DHT22;16799;50.844;5.304;2023-03-01T16:01:40;7.60;56.70
29939;DHT22;16799;50.844;5.304;2023-03-01T16:04:06;7.50;57.60
29939;DHT22;16799;50.844;5.304;2023-03-01T16:06:31;7.50;58.40
29939;DHT22;16799;50.844;5.304;2023-03-01T16:08:57;7.50;57.90
29939;DHT22;16799;50.844;5.304;2023-03-01T16:11:23;7.50;57.90
29939;DHT22;16799;50.844;5.304;2023-03-01T16:13:48;7.50;59.00
29939;DHT22;16799;50.844;5.304;2023-03-01T16:16:16;7.50;59.30
29939;DHT22;16799;50.844;5.304;2023-03-01T16:18:43;7.50;59.70
29939;DHT22;16799;50.844;5.304;2023-03-01T16:21:23;7.50;59.40
29939;DHT22;16799;50.844;5.304;2023-03-01T16:23:49;7.50;59.30
29939;DHT22;16799;50.844;5.304;2023-03-01T16:26:15;7.50;60.00
29939;DHT22;16799;50.844;5.304;2023-03-01T16:28:42;7.40;61.00
29939;DHT22;16799;50.844;5.304;2023-03-01T16:31:08;7.40;61.00
29939;DHT22;16799;50.844;5.304;2023-03-01T16:33:35;7.50;61.00
29939;DHT22;16799;50.844;5.304;2023-03-01T16:36:10;7.40;59.50
29939;DHT22;16799;50.844;5.304;2023-03-01T16:38:36;7.30;60.10
29939;DHT22;16799;50.844;5.304;2023-03-01T16:41:01;7.10;61.30
29939;DHT22;16799;50.844;5.304;2023-03-01T16:43:27;6.90;61.10
29939;DHT22;16799;50.844;5.304;2023-03-01T16:45:54;6.90;61.30
29939;DHT22;16799;50.844;5.304;2023-03-01T16:48:19;6.90;62.70
29939;DHT22;16799;50.844;5.304;2023-03-01T16:50:45;6.80;62.60
29939;DHT22;16799;50.844;5.304;2023-03-01T16:53:11;6.90;63.70
29939;DHT22;16799;50.844;5.304;2023-03-01T16:55:37;6.70;63.20
29939;DHT22;16799;50.844;5.304;2023-03-01T16:58:10;6.70;63.70
29939;DHT22;16799;50.844;5.304;2023-03-01T17:00:36;6.70;64.90
29939;DHT22;16799;50.844;5.304;2023-03-01T17:03:01;6.70;65.70
29939;DHT22;16799;50.844;5.304;2023-03-01T17:05:27;6.50;64.80
29939;DHT22;16799;50.844;5.304;2023-03-01T17:07:53;6.40;66.60
29939;DHT22;16799;50.844;5.304;2023-03-01T17:10:21;6.30;66.80
29939;DHT22;16799;50.844;5.304;2023-03-01T17:12:50;6.40;66.60
29939;DHT22;16799;50.844;5.304;2023-03-01T17:15:16;6.00;67.30
29939;DHT22;16799;50.844;5.304;2023-03-01T17:17:42;6.10;67.40
29939;DHT22;16799;50.844;5.304;2023-03-01T17:20:08;6.00;68.10
29939;DHT22;16799;50.844;5.304;2023-03-01T17:22:34;6.00;67.80
29939;DHT22;16799;50.844;5.304;2023-03-01T17:25:00;6.00;67.90
29939;DHT22;16799;50.844;5.304;2023-03-01T17:27:26;5.90;68.50
29939;DHT22;16799;50.844;5.304;2023-03-01T17:29:52;5.90;69.00
29939;DHT22;16799;50.844;5.304;2023-03-01T17:32:18;5.80;69.40
29939;DHT22;16799;50.844;5.304;2023-03-01T17:34:43;5.60;70.20
29939;DHT22;16799;50.844;5.304;2023-03-01T17:37:10;5.70;70.00
29939;DHT22;16799;50.844;5.304;2023-03-01T17:39:36;5.60;71.10
29939;DHT22;16799;50.844;5.304;2023-03-01T17:42:04;5.80;70.60
29939;DHT22;16799;50.844;5.304;2023-03-01T17:44:31;5.70;71.00
29939;DHT22;16799;50.844;5.304;2023-03-01T17:46:58;5.50;72.90
29939;DHT22;16799;50.844;5.304;2023-03-01T17:49:23;5.40;73.10
29939;DHT22;16799;50.844;5.304;2023-03-01T17:51:49;5.40;72.90
29939;DHT22;16799;50.844;5.304;2023-03-01T17:54:15;5.40;72.40
29939;DHT22;16799;50.844;5.304;2023-03-01T17:56:40;5.30;73.10
29939;DHT22;16799;50.844;5.304;2023-03-01T17:59:07;5.30;73.70
29939;DHT22;16799;50.844;5.304;2023-03-01T18:01:33;5.20;73.90
29939;DHT22;16799;50.844;5.304;2023-03-01T18:04:00;5.00;74.90
29939;DHT22;16799;50.844;5.304;2023-03-01T18:06:27;5.00;74.90